Time;durP1;ratioP1;P1;durP2;ratioP2;P2;SDS_P1;SDS_P2;PMS_P1;PMS_P2;Temp;Humidity;BMP_temperature;BMP_pressure;BME280_temperature;BME280_humidity;BME280_pressure;Samples;Min_cycle;Max_cycle;Signal;HPM_P1;HPM_P2
2023/07/29 00:02:06;;;;;;;5.03;2.30;;;;;;;21.71;63.28;99343.00;7791376;32;36086;-79
2023/07/29 00:06:23;;;;;;;4.20;2.37;;;;;;;21.60;63.83;99344.69;7791692;32;36687;-79
2023/07/29 00:10:39;;;;;;;3.60;2.10;;;;;;;21.56;63.76;99341.03;7791613;32;39465;-79
2023/07/29 00:14:56;;;;;;;4.60;2.22;;;;;;;21.60;63.40;99339.13;7791419;32;40758;-79
2023/07/29 00:19:12;;;;;;;3.50;2.37;;;;;;;21.50;63.48;99332.16;7789418;32;38053;-79
2023/07/29 00:23:30;;;;;;;4.50;2.20;;;;;;;21.61;63.04;99337.16;7791163;32;36788;-79
2023/07/29 00:27:46;;;;;;;4.75;2.25;;;;;;;21.66;62.73;99334.94;7790934;32;39271;-78
2023/07/29 00:32:02;;;;;;;5.43;2.17;;;;;;;21.39;63.39;99334.62;7791098;32;39998;-79
2023/07/29 00:36:19;;;;;;;4.40;2.12;;;;;;;21.61;62.28;99339.94;7776938;32;38436;-79
2023/07/29 00:40:36;;;;;;;4.00;2.42;;;;;;;21.55;62.30;99334.66;7778455;32;36929;-79
2023/07/29 00:44:53;;;;;;;4.68;2.40;;;;;;;21.19;63.32;99339.22;7763686;32;39242;-78
2023/07/29 00:49:09;;;;;;;3.67;2.15;;;;;;;21.08;63.84;99334.56;7763402;32;40063;-78
2023/07/29 00:53:26;;;;;;;3.75;2.15;;;;;;;21.34;62.81;99332.09;7749616;32;38610;-79
2023/07/29 00:57:47;;;;;;;5.47;2.03;;;;;;;21.37;62.26;99330.59;7763252;32;37014;-78
2023/07/29 01:02:05;;;;;;;3.45;2.00;;;;;;;21.39;62.17;99322.72;7763281;32;40016;-78
2023/07/29 01:06:30;;;;;;;5.35;2.58;;;;;;;21.40;61.91;99313.22;7783855;32;39912;-79
2023/07/29 01:10:54;;;;;;;3.97;2.00;;;;;;;21.17;62.51;99319.38;7776027;32;37586;-79
2023/07/29 01:15:16;;;;;;;5.32;2.40;;;;;;;21.06;62.90;99323.81;7775947;32;37774;-79
2023/07/29 01:19:38;;;;;;;4.35;2.35;;;;;;;21.13;62.68;99323.22;7789992;32;40032;-79
2023/07/29 01:23:59;;;;;;;4.45;2.35;;;;;;;20.91;63.27;99317.06;7781711;32;39942;-79
2023/07/29 01:28:15;;;;;;;9.38;3.10;;;;;;;21.07;62.75;99324.63;7780000;32;38813;-79
2023/07/29 01:33:14;;;;;;;3.50;2.20;;;;;;;21.06;62.51;99315.50;7773940;32;36942;-79
2023/07/29 01:37:33;;;;;;;4.15;2.47;;;;;;;20.96;62.94;99313.25;7699753;32;39068;-79
2023/07/29 01:41:50;;;;;;;3.35;1.98;;;;;;;20.94;62.86;99310.84;7779990;32;40719;-79
2023/07/29 01:46:07;;;;;;;4.47;2.28;;;;;;;20.93;62.71;99314.75;7779595;32;38489;-79
2023/07/29 01:50:23;;;;;;;4.10;2.45;;;;;;;20.95;62.49;99317.97;7789767;32;37642;-79
2023/07/29 01:54:39;;;;;;;2.80;2.05;;;;;;;20.98;62.34;99308.97;7766210;32;39262;-79
2023/07/29 01:58:56;;;;;;;2.67;1.75;;;;;;;20.78;63.05;99318.28;7766056;32;40805;-79
2023/07/29 02:03:13;;;;;;;5.50;2.22;;;;;;;20.68;63.20;99318.75;7766090;32;38522;-78
2023/07/29 02:07:29;;;;;;;3.47;2.28;;;;;;;20.77;62.80;99317.47;7766150;32;37665;-78
2023/07/29 02:11:45;;;;;;;4.50;2.08;;;;;;;20.92;62.10;99306.78;7766110;32;39393;-79
2023/07/29 02:16:02;;;;;;;3.60;2.17;;;;;;;20.90;62.02;99315.44;7766375;32;40760;-78
2023/07/29 02:20:18;;;;;;;4.65;2.50;;;;;;;20.59;63.04;99311.41;7765955;32;38640;-78
2023/07/29 02:24:34;;;;;;;4.00;2.28;;;;;;;20.65;63.09;99313.94;7765922;32;38908;-78
2023/07/29 02:28:51;;;;;;;4.28;2.40;;;;;;;20.67;63.21;99317.16;7765934;32;39762;-79
2023/07/29 02:33:07;;;;;;;6.03;2.25;;;;;;;20.83;62.66;99309.72;7765859;32;39910;-79
2023/07/29 02:37:23;;;;;;;5.03;2.20;;;;;;;20.72;62.78;99316.94;7765825;32;37985;-78
2023/07/29 02:41:40;;;;;;;5.00;2.53;;;;;;;20.62;63.25;99313.47;7792872;32;37648;-79
2023/07/29 02:45:56;;;;;;;3.60;2.03;;;;;;;20.59;63.14;99311.41;7792927;32;40000;-80
2023/07/29 02:50:12;;;;;;;5.35;2.50;;;;;;;20.61;62.81;99316.56;7792352;32;40782;-79
2023/07/29 02:54:29;;;;;;;7.78;2.45;;;;;;;20.47;63.42;99322.47;7792665;32;37641;-79
2023/07/29 02:58:45;;;;;;;8.32;2.55;;;;;;;20.29;64.17;99329.47;7790698;32;37750;-79
2023/07/29 03:03:02;;;;;;;4.62;2.42;;;;;;;20.12;65.59;99333.28;7765524;32;39301;-78
2023/07/29 03:07:18;;;;;;;4.53;2.62;;;;;;;20.29;64.59;99340.53;7765416;32;40982;-79
2023/07/29 03:11:34;;;;;;;3.70;2.15;;;;;;;20.30;64.17;99336.59;7765335;32;38015;-79
2023/07/29 03:15:51;;;;;;;3.33;2.37;;;;;;;20.16;64.57;99335.00;7765329;32;36597;-79
2023/07/29 03:20:08;;;;;;;4.43;2.00;;;;;;;20.18;64.52;99332.69;7765419;32;39268;-79
2023/07/29 03:24:24;;;;;;;4.60;2.50;;;;;;;20.44;63.51;99325.97;7774745;32;39977;-78
2023/07/29 03:28:42;;;;;;;5.18;2.20;;;;;;;20.20;64.35;99324.84;7789821;32;37641;-78
2023/07/29 03:32:58;;;;;;;5.78;2.20;;;;;;;20.19;64.55;99331.53;7792030;32;38147;-78
2023/07/29 03:37:15;;;;;;;5.65;2.20;;;;;;;20.38;63.76;99330.91;7773907;32;39768;-79
2023/07/29 03:41:31;;;;;;;5.87;2.40;;;;;;;20.08;64.56;99333.16;7765062;32;40903;-79
2023/07/29 03:45:47;;;;;;;3.15;1.90;;;;;;;20.25;64.14;99330.16;7774908;32;38009;-77
2023/07/29 03:50:04;;;;;;;3.70;2.30;;;;;;;20.51;63.87;99323.41;7771360;32;37703;-77
2023/07/29 03:54:21;;;;;;;4.53;2.50;;;;;;;20.49;63.06;99322.97;7773892;32;38943;-78
2023/07/29 03:58:37;;;;;;;3.62;2.10;;;;;;;20.45;63.02;99344.19;7772899;32;40783;-76
2023/07/29 04:02:53;;;;;;;4.35;2.05;;;;;;;20.51;62.90;99336.47;7764397;32;38000;-77
2023/07/29 04:07:10;;;;;;;4.55;2.47;;;;;;;20.41;63.11;99348.81;7764485;32;36995;-77
2023/07/29 04:11:26;;;;;;;4.57;2.37;;;;;;;20.64;62.42;99343.59;7750563;32;39974;-76
2023/07/29 04:15:42;;;;;;;6.35;2.87;;;;;;;20.73;62.60;99335.12;7764202;32;40155;-79
2023/07/29 04:19:59;;;;;;;4.85;2.45;;;;;;;20.80;62.73;99335.38;7778371;32;38587;-79
2023/07/29 04:24:15;;;;;;;4.03;2.03;;;;;;;20.72;62.97;99333.53;7791260;32;37152;-79
2023/07/29 04:28:31;;;;;;;4.65;1.95;;;;;;;20.67;63.45;99339.31;7791235;32;40034;-79
2023/07/29 04:32:48;;;;;;;6.22;2.05;;;;;;;20.73;63.22;99335.97;7791025;32;39970;-79
2023/07/29 04:37:04;;;;;;;5.15;2.12;;;;;;;20.62;63.68;99338.41;7790751;32;37991;-79
2023/07/29 04:41:21;;;;;;;4.45;2.45;;;;;;;20.78;63.22;99329.34;7772786;32;36636;-78
2023/07/29 04:45:42;;;;;;;4.07;2.20;;;;;;;20.82;63.12;99333.06;7763772;32;40002;-78
2023/07/29 04:49:59;;;;;;;5.05;2.03;;;;;;;20.96;62.78;99338.19;7781132;32;40015;-78
2023/07/29 04:54:15;;;;;;;5.50;2.53;;;;;;;21.02;62.59;99350.63;7790553;32;38100;-78
2023/07/29 04:58:34;;;;;;;4.75;2.40;;;;;;;21.04;63.07;99347.50;7790356;32;37007;-78
2023/07/29 05:02:51;;;;;;;4.45;2.30;;;;;;;21.16;63.23;99341.91;7779867;32;39166;-78
2023/07/29 05:07:07;;;;;;;3.40;2.03;;;;;;;21.32;62.91;99339.19;7765232;32;40138;-78
2023/07/29 05:11:25;;;;;;;4.15;2.45;;;;;;;21.51;62.49;99347.63;7764366;32;38002;-78
2023/07/29 05:15:41;;;;;;;2.85;2.00;;;;;;;21.58;62.97;99344.25;7766775;32;37757;-76
2023/07/29 05:19:58;;;;;;;3.75;2.35;;;;;;;21.82;62.16;99351.59;7766782;32;39291;-78
2023/07/29 05:24:14;;;;;;;3.97;2.28;;;;;;;21.49;63.06;99358.28;7766630;32;39963;-78
2023/07/29 05:28:30;;;;;;;5.28;2.45;;;;;;;21.85;62.36;99361.16;7766571;32;37983;-77
2023/07/29 05:32:47;;;;;;;6.90;2.45;;;;;;;22.02;62.16;99365.53;7776542;32;36950;-80
2023/07/29 05:37:03;;;;;;;4.45;2.60;;;;;;;21.98;62.51;99376.56;7783887;32;39234;-80
2023/07/29 05:41:20;;;;;;;4.18;2.40;;;;;;;21.80;62.57;99378.06;7777444;32;40078;-79
2023/07/29 05:45:37;;;;;;;6.50;2.10;;;;;;;22.08;62.43;99394.66;7752542;32;37628;-78
2023/07/29 05:49:54;;;;;;;6.57;2.60;;;;;;;22.27;62.00;99396.69;7766348;32;36637;-78
2023/07/29 05:54:10;;;;;;;4.05;2.40;;;;;;;22.67;61.06;99403.97;7766297;32;39368;-78
2023/07/29 05:58:27;;;;;;;4.55;2.30;;;;;;;22.85;60.48;99398.81;7765736;32;39687;-78
2023/07/29 06:02:43;;;;;;;4.45;2.12;;;;;;;23.18;60.00;99400.31;7774040;32;38113;-77
2023/07/29 06:07:00;;;;;;;4.57;2.42;;;;;;;23.38;59.39;99409.47;7792886;32;36951;-78
2023/07/29 06:11:16;;;;;;;4.72;2.67;;;;;;;23.57;59.11;99406.63;7789855;32;39625;-78
2023/07/29 06:15:32;;;;;;;4.18;2.45;;;;;;;23.83;57.76;99410.72;7789820;32;40724;-78
2023/07/29 06:19:49;;;;;;;8.13;2.90;;;;;;;23.92;58.32;99410.47;7791120;32;37526;-78
2023/07/29 06:24:05;;;;;;;5.20;2.47;;;;;;;23.05;60.92;99435.78;7790244;32;37452;-78
2023/07/29 06:28:25;;;;;;;5.07;2.65;;;;;;;23.68;57.99;99426.34;7793262;32;39384;-78
2023/07/29 06:32:42;;;;;;;4.85;2.75;;;;;;;24.19;57.69;99425.25;7793014;32;39940;-78
2023/07/29 06:36:58;;;;;;;4.72;2.47;;;;;;;24.54;57.92;99424.22;7792990;32;38701;-78
2023/07/29 06:41:14;;;;;;;3.80;2.50;;;;;;;24.64;55.53;99426.38;7793100;32;38471;-78
2023/07/29 06:45:34;;;;;;;7.37;2.47;;;;;;;24.64;56.12;99420.00;7786262;32;38953;-78
2023/07/29 06:49:50;;;;;;;5.32;2.90;;;;;;;24.42;55.28;99427.19;7751863;32;40688;-78
2023/07/29 06:54:07;;;;;;;5.07;2.65;;;;;;;24.43;54.12;99432.41;7773210;32;37683;-78
2023/07/29 06:58:23;;;;;;;5.53;2.60;;;;;;;24.46;55.45;99416.94;7767383;32;37657;-78
2023/07/29 07:02:39;;;;;;;5.28;2.70;;;;;;;24.56;55.86;99424.69;7765494;32;39352;-78
2023/07/29 07:06:56;;;;;;;6.47;2.53;;;;;;;25.11;53.10;99418.62;7765412;32;40789;-78
2023/07/29 07:11:12;;;;;;;5.12;3.00;;;;;;;25.25;51.31;99413.28;7766102;32;38797;-78
2023/07/29 07:15:28;;;;;;;5.62;2.97;;;;;;;25.34;49.67;99415.78;7792672;32;36720;-78
2023/07/29 07:19:46;;;;;;;4.47;2.45;;;;;;;25.63;50.45;99410.47;7792550;32;38976;-78
2023/07/29 07:24:02;;;;;;;3.92;2.37;;;;;;;26.04;50.07;99418.88;7792394;32;40032;-78
2023/07/29 07:28:18;;;;;;;4.68;2.33;;;;;;;25.64;49.87;99415.69;7792353;32;37744;-78
2023/07/29 07:32:36;;;;;;;4.37;2.62;;;;;;;25.83;50.54;99409.09;7782474;32;37709;-78
2023/07/29 07:36:52;;;;;;;5.55;3.55;;;;;;;25.98;51.23;99409.28;7764603;32;40012;-79
2023/07/29 07:41:09;;;;;;;6.12;2.80;;;;;;;26.24;50.61;99397.91;7764716;32;39848;-78
2023/07/29 07:45:25;;;;;;;4.30;2.35;;;;;;;26.27;51.23;99398.31;7764676;32;37894;-78
2023/07/29 07:49:41;;;;;;;5.95;2.50;;;;;;;26.60;49.20;99400.94;7764877;32;37908;-79
2023/07/29 07:53:58;;;;;;;3.00;2.00;;;;;;;26.91;49.31;99397.97;7764785;32;39336;-78
2023/07/29 07:58:14;;;;;;;3.87;2.00;;;;;;;26.64;46.56;99392.63;7758626;32;181121;-78
2023/07/29 08:02:30;;;;;;;4.60;2.08;;;;;;;26.98;47.26;99387.59;7764115;32;38618;-79
2023/07/29 08:06:47;;;;;;;4.28;2.15;;;;;;;26.01;45.78;99392.53;7764108;32;36771;-78
2023/07/29 08:11:03;;;;;;;5.93;2.03;;;;;;;25.93;47.53;99390.06;7764466;32;39377;-78
2023/07/29 08:15:20;;;;;;;3.83;2.22;;;;;;;25.80;48.27;99376.37;7774110;32;40779;-78
2023/07/29 08:19:37;;;;;;;3.92;2.10;;;;;;;26.10;47.75;99378.25;7791269;32;38685;-78
2023/07/29 08:23:53;;;;;;;6.28;2.12;;;;;;;26.81;47.02;99379.12;7791391;32;36990;-78
2023/07/29 08:28:11;;;;;;;5.55;1.90;;;;;;;26.36;47.24;99373.66;7791260;32;40114;-78
2023/07/29 08:32:27;;;;;;;5.28;1.87;;;;;;;26.63;46.08;99379.03;7788841;32;40768;-78
2023/07/29 08:36:44;;;;;;;5.82;2.20;;;;;;;27.40;46.98;99362.19;7790008;32;37624;-79
2023/07/29 08:41:22;;;;;;;2.45;1.60;;;;;;;27.05;45.98;99364.47;7788706;32;37279;-78
2023/07/29 08:45:38;;;;;;;3.53;1.87;;;;;;;27.40;44.69;99357.38;7790936;32;38231;-78
2023/07/29 08:49:55;;;;;;;2.83;1.70;;;;;;;27.36;45.26;99356.59;7794169;32;39711;-78
2023/07/29 08:54:12;;;;;;;2.78;1.70;;;;;;;27.61;43.68;99344.63;7782135;32;37877;-78
2023/07/29 08:58:29;;;;;;;4.03;1.60;;;;;;;27.91;44.22;99344.25;7766581;32;38512;-78
2023/07/29 09:02:45;;;;;;;3.12;1.98;;;;;;;28.22;42.71;99342.66;7776846;32;39264;-79
2023/07/29 09:07:02;;;;;;;2.50;1.60;;;;;;;27.82;43.06;99350.25;7794094;32;40057;-79
2023/07/29 09:11:19;;;;;;;2.53;1.45;;;;;;;28.16;41.19;99337.84;7793271;32;37837;-78
2023/07/29 09:15:37;;;;;;;3.42;1.60;;;;;;;28.25;40.26;99343.84;7766725;32;37013;-78
2023/07/29 09:19:54;;;;;;;2.22;1.60;;;;;;;28.25;41.65;99344.66;7768315;32;39244;-79
2023/07/29 09:24:12;;;;;;;4.05;2.37;;;;;;;28.09;41.10;99347.84;7779866;32;39779;-79
2023/07/29 09:28:33;;;;;;;2.67;1.90;;;;;;;28.45;41.36;99338.59;7776114;32;36799;-79
2023/07/29 09:32:56;;;;;;;4.00;1.80;;;;;;;28.47;40.30;99342.59;7752786;32;37849;-79
2023/07/29 09:37:23;;;;;;;2.00;1.42;;;;;;;27.84;42.57;99335.84;7766118;32;39273;-79
2023/07/29 09:41:39;;;;;;;2.78;1.50;;;;;;;28.30;41.34;99329.41;7778662;32;40065;-79
2023/07/29 09:45:59;;;;;;;4.30;1.48;;;;;;;28.84;40.77;99329.31;7765733;32;38662;-79
2023/07/29 09:50:16;;;;;;;3.28;1.60;;;;;;;28.76;39.33;99334.12;7780296;32;37848;-79
2023/07/29 09:54:32;;;;;;;2.87;1.77;;;;;;;28.52;38.88;99332.19;7793000;32;39325;-78
2023/07/29 09:58:49;;;;;;;2.47;1.70;;;;;;;28.27;40.21;99327.44;7786360;32;40640;-78
2023/07/29 10:03:07;;;;;;;3.40;1.62;;;;;;;28.63;40.78;99330.16;7765588;32;37915;-79
2023/07/29 10:07:24;;;;;;;2.62;1.48;;;;;;;28.23;40.04;99329.44;7751900;32;37388;-79
2023/07/29 10:11:41;;;;;;;2.95;1.70;;;;;;;28.26;40.43;99335.03;7774983;32;40019;-78
2023/07/29 10:15:58;;;;;;;2.47;1.62;;;;;;;28.99;38.99;99330.00;7779251;32;40131;-79
2023/07/29 10:20:14;;;;;;;3.12;1.50;;;;;;;28.64;39.54;99340.19;7778844;32;38664;-79
2023/07/29 10:24:32;;;;;;;2.28;1.40;;;;;;;28.39;38.81;99329.81;7765885;32;36856;-78
2023/07/29 10:28:51;;;;;;;2.42;1.60;;;;;;;28.55;39.07;99325.78;7756297;32;39876;-78
2023/07/29 10:33:07;;;;;;;2.72;1.48;;;;;;;28.15;38.75;99322.22;7779306;32;39884;-78
2023/07/29 10:37:24;;;;;;;3.05;1.55;;;;;;;28.86;39.16;99320.47;7786552;32;37875;-78
2023/07/29 10:42:00;;;;;;;2.30;1.62;;;;;;;28.67;37.61;99316.16;7765677;32;37141;-79
2023/07/29 10:46:21;;;;;;;2.65;1.50;;;;;;;29.28;37.47;99311.03;7765560;32;39851;-79
2023/07/29 10:50:38;;;;;;;1.92;1.50;;;;;;;29.65;38.79;99306.78;7791930;32;38943;-79
2023/07/29 10:54:55;;;;;;;2.70;1.52;;;;;;;29.66;37.30;99310.38;7792658;32;37624;-79
2023/07/29 10:59:17;;;;;;;2.60;1.50;;;;;;;30.19;36.82;99300.69;7774955;32;37846;-78
2023/07/29 11:03:34;;;;;;;4.55;1.80;;;;;;;29.99;36.60;99296.88;7768615;32;39398;-79
2023/07/29 11:07:50;;;;;;;2.33;1.40;;;;;;;29.40;37.56;99298.53;7769855;32;40039;-79
2023/07/29 11:12:36;;;;;;;2.72;1.55;;;;;;;29.89;36.71;99301.38;7774470;32;37938;-79
2023/07/29 11:16:53;;;;;;;3.17;1.80;;;;;;;30.18;34.95;99304.72;7774945;32;37043;-79
2023/07/29 11:21:10;;;;;;;3.83;1.52;;;;;;;30.48;33.99;99297.63;7760986;32;39272;-79
2023/07/29 11:25:28;;;;;;;1.70;1.40;;;;;;;30.91;34.21;99285.81;7773822;32;40735;-79
2023/07/29 11:29:44;;;;;;;2.42;1.37;;;;;;;31.31;33.58;99290.91;7765028;32;37939;-80
2023/07/29 11:34:06;;;;;;;3.95;1.90;;;;;;;30.52;33.22;99292.72;7776917;32;37098;-81
2023/07/29 11:38:23;;;;;;;2.25;1.42;;;;;;;30.59;33.90;99289.81;7764862;32;40902;-80
2023/07/29 11:42:40;;;;;;;2.35;1.50;;;;;;;30.52;33.58;99293.53;7780461;32;40022;-79
2023/07/29 11:46:56;;;;;;;1.80;1.30;;;;;;;31.30;33.31;99290.09;7780131;32;38719;-79
2023/07/29 11:51:13;;;;;;;1.35;1.10;;;;;;;31.41;33.06;99281.50;7764923;32;38349;-79
2023/07/29 11:55:29;;;;;;;2.92;1.50;;;;;;;31.75;32.61;99281.38;7752522;32;39266;-78
2023/07/29 11:59:46;;;;;;;5.53;1.20;;;;;;;31.41;31.78;99278.69;7778706;32;40779;-79
2023/07/29 12:04:03;;;;;;;1.70;1.40;;;;;;;32.00;33.47;99268.87;7752425;32;37573;-80
2023/07/29 12:08:20;;;;;;;2.47;1.52;;;;;;;31.99;31.29;99272.91;7768787;32;37108;-79
2023/07/29 12:12:54;;;;;;;1.95;1.45;;;;;;;32.01;31.35;99264.81;7750465;32;40038;-79
2023/07/29 12:17:11;;;;;;;2.90;1.60;;;;;;;31.93;31.04;99264.16;7770479;32;39601;-80
2023/07/29 12:21:29;;;;;;;2.10;1.37;;;;;;;32.47;30.89;99262.34;7780380;32;37999;-79
2023/07/29 12:25:45;;;;;;;2.50;1.45;;;;;;;32.20;31.06;99260.44;7782935;32;37545;-79
2023/07/29 12:30:05;;;;;;;4.30;1.62;;;;;;;32.47;29.70;99251.84;7787202;32;40122;-80
2023/07/29 12:34:21;;;;;;;5.22;1.60;;;;;;;32.59;30.40;99252.44;7770058;32;39929;-79
2023/07/29 12:38:38;;;;;;;2.15;1.50;;;;;;;32.36;31.02;99240.00;7774291;32;37912;-78
2023/07/29 12:42:56;;;;;;;2.28;1.45;;;;;;;33.02;29.94;99240.22;7790689;32;37749;-79
2023/07/29 12:47:13;;;;;;;4.30;1.30;;;;;;;32.78;30.08;99234.69;7776901;32;39111;-79
2023/07/29 12:51:30;;;;;;;2.83;1.50;;;;;;;32.76;30.00;99228.72;7764802;32;40029;-80
2023/07/29 12:55:46;;;;;;;2.87;1.37;;;;;;;32.94;29.52;99231.94;7763058;32;38860;-79
2023/07/29 13:00:03;;;;;;;8.93;1.90;;;;;;;32.88;29.16;99225.19;7768981;32;37511;-78
2023/07/29 13:04:20;;;;;;;5.75;1.60;;;;;;;32.53;30.35;99221.91;7762794;32;39250;-81
2023/07/29 13:08:37;;;;;;;2.35;1.40;;;;;;;31.33;30.91;99216.03;7771904;32;39921;-79
2023/07/29 13:12:56;;;;;;;2.95;1.87;;;;;;;32.57;30.59;99210.56;7767138;32;37939;-79
2023/07/29 13:17:12;;;;;;;2.60;1.75;;;;;;;31.47;31.40;99220.66;7777301;32;37004;-79
2023/07/29 13:21:28;;;;;;;4.57;1.70;;;;;;;31.14;32.01;99203.47;7787051;32;40362;-79
2023/07/29 13:25:44;;;;;;;3.00;1.95;;;;;;;31.55;31.06;99204.47;7789646;32;39983;-79
2023/07/29 13:30:01;;;;;;;2.17;1.30;;;;;;;31.60;31.17;99209.59;7763025;32;38297;-79
2023/07/29 13:34:17;;;;;;;5.80;1.70;;;;;;;31.18;30.90;99195.75;7765619;32;36996;-79
2023/07/29 13:38:33;;;;;;;4.35;1.60;;;;;;;31.70;29.52;99193.72;7772740;32;39519;-78
2023/07/29 13:42:50;;;;;;;4.25;1.80;;;;;;;32.00;31.12;99176.63;7790838;32;41138;-78
2023/07/29 13:47:06;;;;;;;2.85;1.77;;;;;;;31.69;30.67;99187.28;7766137;32;37775;-79
2023/07/29 13:51:23;;;;;;;4.25;1.92;;;;;;;32.69;29.35;99180.91;7766251;32;37491;-78
2023/07/29 13:55:39;;;;;;;3.70;1.95;;;;;;;33.33;27.82;99169.34;7772907;32;40171;-80
2023/07/29 13:59:56;;;;;;;4.57;1.75;;;;;;;32.86;27.45;99176.09;7793092;32;40154;-79
2023/07/29 14:04:12;;;;;;;2.78;1.62;;;;;;;33.55;28.52;99170.34;7783730;32;37857;-80
2023/07/29 14:08:29;;;;;;;3.17;1.60;;;;;;;33.13;27.93;99185.09;7793041;32;37107;-80
2023/07/29 14:12:45;;;;;;;2.22;1.45;;;;;;;33.23;28.14;99183.25;7792860;32;38972;-79
2023/07/29 14:17:01;;;;;;;4.22;1.60;;;;;;;33.45;27.58;99171.44;7765837;32;40916;-80
2023/07/29 14:21:18;;;;;;;4.22;1.52;;;;;;;33.95;28.11;99161.63;7765388;32;38585;-80
2023/07/29 14:25:34;;;;;;;1.90;1.40;;;;;;;33.56;28.04;99163.44;7780939;32;37228;-79
2023/07/29 14:29:51;;;;;;;1.48;1.20;;;;;;;33.21;28.12;99153.88;7765769;32;39416;-79
2023/07/29 14:34:07;;;;;;;3.35;1.60;;;;;;;33.73;27.94;99152.16;7781262;32;40090;-81
2023/07/29 14:38:23;;;;;;;1.85;1.50;;;;;;;33.91;26.50;99158.12;7790496;32;38715;-79
2023/07/29 14:42:40;;;;;;;2.20;1.50;;;;;;;33.80;26.75;99147.09;7791744;32;37806;-79
2023/07/29 14:46:56;;;;;;;6.07;1.80;;;;;;;32.99;27.54;99153.59;7792599;32;39275;-80
2023/07/29 14:51:12;;;;;;;2.35;1.30;;;;;;;32.96;27.58;99155.28;7792508;32;40038;-78
2023/07/29 14:55:29;;;;;;;2.20;1.50;;;;;;;31.94;29.18;99138.09;7785903;32;37589;-80
2023/07/29 14:59:45;;;;;;;3.10;1.60;;;;;;;31.90;29.84;99148.66;7792702;32;35490;-78
2023/07/29 15:04:02;;;;;;;2.97;1.50;;;;;;;31.50;29.64;99143.00;7792485;32;40092;-78
2023/07/29 15:08:18;;;;;;;2.10;1.45;;;;;;;31.48;29.74;99142.56;7771677;32;39971;-79
2023/07/29 15:12:34;;;;;;;1.60;1.50;;;;;;;30.89;31.80;99161.63;7764223;32;37939;-79
2023/07/29 15:16:51;;;;;;;5.43;1.50;;;;;;;30.34;32.15;99158.75;7764940;32;37843;-78
2023/07/29 15:21:09;;;;;;;2.72;1.20;;;;;;;30.12;32.46;99154.63;7764153;32;40138;-79
2023/07/29 15:25:25;;;;;;;2.67;1.40;;;;;;;29.89;32.88;99153.28;7763294;32;40775;-78
2023/07/29 15:29:41;;;;;;;2.22;1.50;;;;;;;29.86;33.60;99156.16;7763448;32;38723;-79
2023/07/29 15:33:58;;;;;;;2.25;1.62;;;;;;;30.05;33.21;99155.50;7763619;32;37951;-79
2023/07/29 15:38:14;;;;;;;5.93;1.50;;;;;;;29.97;33.54;99156.81;7764162;32;39268;-84
2023/07/29 15:42:30;;;;;;;4.82;1.70;;;;;;;30.36;33.58;99154.78;7764433;32;40205;-79
2023/07/29 15:46:47;;;;;;;2.87;1.27;;;;;;;30.37;33.72;99162.75;7764428;32;38609;-78
2023/07/29 15:51:03;;;;;;;3.37;1.70;;;;;;;30.29;34.02;99164.06;7764445;32;38164;-78
2023/07/29 15:55:20;;;;;;;4.07;1.60;;;;;;;30.19;35.26;99174.22;7766255;32;40032;-78
2023/07/29 15:59:37;;;;;;;2.70;1.60;;;;;;;29.92;35.38;99177.72;7772333;32;40799;-78
2023/07/29 16:03:53;;;;;;;2.87;1.75;;;;;;;30.28;35.95;99182.91;7771871;32;37920;-78
2023/07/29 16:08:10;;;;;;;2.35;1.52;;;;;;;30.01;35.52;99176.44;7772963;32;37622;-76
2023/07/29 16:12:28;;;;;;;2.80;1.52;;;;;;;29.89;35.98;99175.75;7769975;32;39507;-75
2023/07/29 16:16:47;;;;;;;2.78;1.65;;;;;;;29.86;36.64;99182.22;7770660;32;40076;-80
2023/07/29 16:21:07;;;;;;;5.05;2.00;;;;;;;29.65;36.41;99183.22;7774979;32;37882;-80
2023/07/29 16:25:24;;;;;;;3.30;1.60;;;;;;;29.86;36.01;99190.63;7774325;32;37900;-79
2023/07/29 16:29:41;;;;;;;5.10;1.67;;;;;;;29.68;35.85;99190.78;7772754;32;39260;-81
2023/07/29 16:33:58;;;;;;;6.20;1.65;;;;;;;29.67;36.52;99191.22;7758735;32;40912;-80
2023/07/29 16:38:15;;;;;;;3.25;1.75;;;;;;;29.73;36.52;99201.56;7757898;32;37795;-80
2023/07/29 16:42:32;;;;;;;4.37;2.10;;;;;;;29.72;37.30;99216.06;7770886;32;37096;-81
2023/07/29 16:46:49;;;;;;;6.97;2.08;;;;;;;29.46;37.84;99235.12;7771927;32;39172;-79
2023/07/29 16:51:08;;;;;;;3.62;1.70;;;;;;;29.02;39.02;99228.19;7770425;32;39937;-79
2023/07/29 16:55:24;;;;;;;3.55;1.48;;;;;;;28.53;40.56;99232.84;7761814;32;38622;-81
2023/07/29 16:59:40;;;;;;;5.60;1.75;;;;;;;28.25;41.79;99231.75;7789857;32;37355;-78
2023/07/29 17:03:57;;;;;;;3.15;1.60;;;;;;;27.79;43.60;99239.03;7779644;32;39151;-78
2023/07/29 17:08:13;;;;;;;4.50;1.80;;;;;;;27.45;45.37;99244.25;7765322;32;39654;-78
2023/07/29 17:12:29;;;;;;;3.95;1.80;;;;;;;27.10;46.75;99226.22;7778432;32;38014;-80
2023/07/29 17:16:45;;;;;;;3.20;1.65;;;;;;;27.17;46.96;99237.41;7792272;32;37340;-79
2023/07/29 17:21:02;;;;;;;1.55;1.40;;;;;;;27.10;46.28;99231.81;7793447;32;40032;-80
2023/07/29 17:25:18;;;;;;;3.85;1.77;;;;;;;27.42;45.76;99237.44;7776032;32;40740;-78
2023/07/29 17:29:34;;;;;;;5.20;1.80;;;;;;;27.21;46.14;99240.19;7778351;32;37995;-74
2023/07/29 17:33:51;;;;;;;8.40;2.15;;;;;;;27.17;46.41;99227.00;7777276;32;37620;-87
2023/07/29 17:38:08;;;;;;;4.03;1.85;;;;;;;26.95;47.27;99253.34;7768308;32;39252;-80
2023/07/29 17:42:35;;;;;;;4.20;1.62;;;;;;;26.86;48.12;99244.53;7785323;32;40810;-78
2023/07/29 17:46:52;;;;;;;3.85;1.92;;;;;;;26.61;48.59;99250.81;7787654;32;38033;-81
2023/07/29 17:51:09;;;;;;;4.47;2.22;;;;;;;26.43;49.32;99245.94;7789736;32;36759;-81
2023/07/29 17:55:26;;;;;;;5.18;1.90;;;;;;;26.60;48.71;99250.00;7790409;32;39288;-81
2023/07/29 17:59:44;;;;;;;6.05;2.10;;;;;;;26.12;49.18;99247.37;7788286;32;39948;-81
2023/07/29 18:04:01;;;;;;;2.83;1.62;;;;;;;26.16;48.48;99248.19;7789236;32;37741;-79
2023/07/29 18:08:18;;;;;;;5.32;1.77;;;;;;;26.53;47.88;99244.41;7789914;32;38002;-79
2023/07/29 18:12:35;;;;;;;3.00;1.45;;;;;;;26.71;49.13;99252.88;7790472;32;39745;-79
2023/07/29 18:16:52;;;;;;;2.85;1.40;;;;;;;26.71;47.55;99254.87;7790551;32;40853;-79
2023/07/29 18:21:08;;;;;;;4.15;1.65;;;;;;;26.84;48.24;99267.31;7784752;32;37884;-77
2023/07/29 18:25:24;;;;;;;2.75;1.65;;;;;;;26.88;47.86;99270.09;7789351;32;37152;-78
2023/07/29 18:29:40;;;;;;;6.30;1.83;;;;;;;26.78;48.08;99266.06;7788583;32;40154;-79
2023/07/29 18:33:57;;;;;;;2.95;1.73;;;;;;;26.78;48.11;99269.66;7787925;32;39639;-78
2023/07/29 18:38:14;;;;;;;4.50;2.42;;;;;;;26.63;48.48;99281.19;7788154;32;37925;-80
2023/07/29 18:42:31;;;;;;;3.30;1.80;;;;;;;26.50;48.96;99267.53;7789640;32;37915;-81
2023/07/29 18:46:48;;;;;;;4.62;1.83;;;;;;;26.46;49.14;99277.91;7789896;32;38973;-80
2023/07/29 18:51:09;;;;;;;3.05;1.98;;;;;;;26.40;49.05;99277.47;7787989;32;39695;-80
2023/07/29 18:55:28;;;;;;;3.67;1.80;;;;;;;26.28;49.39;99271.41;7774052;32;37888;-80
2023/07/29 18:59:45;;;;;;;6.68;1.90;;;;;;;26.09;49.97;99270.50;7781333;32;36669;-80
2023/07/29 19:04:02;;;;;;;8.25;2.30;;;;;;;26.20;49.52;99276.19;7780099;32;40209;-80
2023/07/29 19:08:19;;;;;;;8.68;2.30;;;;;;;26.14;49.49;99283.31;7771944;32;39657;-81
2023/07/29 19:12:38;;;;;;;6.35;2.20;;;;;;;25.91;49.96;99289.91;7772277;32;38658;-81
2023/07/29 19:16:55;;;;;;;3.33;1.95;;;;;;;25.81;50.13;99271.09;7773842;32;36782;-81
2023/07/29 19:21:11;;;;;;;5.60;1.80;;;;;;;25.75;50.20;99267.03;7760330;32;39807;-80
2023/07/29 19:25:28;;;;;;;5.12;2.28;;;;;;;25.90;49.44;99273.53;7774814;32;40082;-81
2023/07/29 19:29:44;;;;;;;5.37;2.03;;;;;;;25.75;49.69;99251.12;7788086;32;37947;-80
2023/07/29 19:34:01;;;;;;;4.40;2.20;;;;;;;25.61;50.09;99242.62;7764952;32;36841;-79
2023/07/29 19:38:17;;;;;;;4.68;2.03;;;;;;;25.34;50.86;99272.72;7767634;32;40022;-81
2023/07/29 19:42:34;;;;;;;3.83;1.75;;;;;;;25.16;51.56;99264.13;7781254;32;41346;-82
2023/07/29 19:46:50;;;;;;;4.47;2.30;;;;;;;25.21;51.35;99249.81;7783293;32;37890;-80
2023/07/29 19:51:06;;;;;;;4.12;2.10;;;;;;;24.70;52.59;99251.28;7789936;32;37909;-79
2023/07/29 19:55:24;;;;;;;4.03;1.92;;;;;;;24.78;52.37;99266.88;7782866;32;39937;-79
2023/07/29 19:59:41;;;;;;;4.95;2.72;;;;;;;24.65;53.02;99262.78;7787751;32;39859;-78
2023/07/29 20:04:04;;;;;;;7.57;2.80;;;;;;;24.43;54.02;99256.91;7787058;32;38859;-79
2023/07/29 20:08:21;;;;;;;8.05;2.70;;;;;;;24.51;53.90;99271.72;7787869;32;37399;-80
2023/07/29 20:12:37;;;;;;;3.12;2.22;;;;;;;24.59;53.63;99275.44;7787251;32;39454;-80